createdAt,value
2022-09-17T00:01:38.588Z,7.60
2022-09-17T00:04:06.811Z,9.70
2022-09-17T00:06:36.510Z,8.60
2022-09-17T00:09:08.066Z,9.10
2022-09-17T00:11:39.459Z,9.30
2022-09-17T00:14:10.310Z,8.30
2022-09-17T00:16:42.455Z,7.20
2022-09-17T00:19:23.156Z,9.90
2022-09-17T00:21:53.027Z,6.70
2022-09-17T00:24:20.958Z,8.10
2022-09-17T00:26:50.362Z,7.10
2022-09-17T00:29:18.067Z,8.70
2022-09-17T00:31:45.847Z,9.00
2022-09-17T00:34:13.533Z,9.20
2022-09-17T00:36:41.577Z,8.40
2022-09-17T00:39:16.349Z,8.80
2022-09-17T00:41:44.798Z,7.50
2022-09-17T00:44:44.410Z,12.00
2022-09-17T00:47:39.589Z,8.30
2022-09-17T00:50:13.247Z,6.60
2022-09-17T00:52:51.876Z,7.20
2022-09-17T00:55:21.912Z,8.10
2022-09-17T00:57:52.411Z,8.30
2022-09-17T01:00:23.041Z,7.70
2022-09-17T01:02:54.335Z,8.80
2022-09-17T01:05:42.374Z,7.60
2022-09-17T01:08:17.986Z,8.90
2022-09-17T01:11:22.972Z,8.10
2022-09-17T01:13:56.526Z,8.50
2022-09-17T01:16:55.623Z,9.40
2022-09-17T01:19:41.884Z,7.30
2022-09-17T01:22:20.312Z,8.80
2022-09-17T01:25:09.725Z,8.30
2022-09-17T01:27:46.373Z,9.60
2022-09-17T01:30:35.730Z,8.50
2022-09-17T01:33:23.393Z,9.50
2022-09-17T01:36:09.632Z,10.70
2022-09-17T01:38:58.859Z,7.80
2022-09-17T01:41:42.656Z,7.20
2022-09-17T01:44:21.318Z,9.50
2022-09-17T01:46:58.106Z,7.90
2022-09-17T01:49:25.910Z,8.70
2022-09-17T01:51:55.156Z,8.40
2022-09-17T01:54:28.530Z,7.40
2022-09-17T01:57:13.370Z,10.20
2022-09-17T01:59:48.600Z,11.10
2022-09-17T02:02:27.947Z,8.40
2022-09-17T02:05:05.788Z,12.80
2022-09-17T02:07:53.833Z,8.90
2022-09-17T02:10:31.445Z,7.30
2022-09-17T02:13:08.249Z,9.40
2022-09-17T02:15:41.492Z,8.90
2022-09-17T02:18:32.998Z,10.00
2022-09-17T02:21:09.515Z,8.10
2022-09-17T02:23:57.666Z,8.10
2022-09-17T02:26:27.796Z,7.90
2022-09-17T02:29:02.463Z,10.90
2022-09-17T02:31:30.164Z,9.00
2022-09-17T02:34:05.854Z,8.70
2022-09-17T02:36:35.181Z,9.60
2022-09-17T02:39:04.647Z,9.20
2022-09-17T02:41:51.277Z,9.90
2022-09-17T02:44:27.685Z,9.60
2022-09-17T02:47:16.843Z,8.40
2022-09-17T02:50:03.586Z,9.40
2022-09-17T02:52:47.307Z,8.70
2022-09-17T02:55:54.419Z,7.80
2022-09-17T02:58:32.518Z,7.70
2022-09-17T03:01:07.209Z,9.40
2022-09-17T03:03:41.903Z,9.50
2022-09-17T03:06:09.725Z,9.30
2022-09-17T03:08:41.125Z,10.80
2022-09-17T03:11:11.029Z,6.90
2022-09-17T03:13:38.730Z,7.30
2022-09-17T03:16:07.893Z,7.80
2022-09-17T03:18:35.577Z,7.60
2022-09-17T03:21:03.373Z,6.80
2022-09-17T03:23:30.981Z,7.90
2022-09-17T03:26:03.022Z,7.00
2022-09-17T03:28:30.713Z,8.30
2022-09-17T03:30:58.361Z,7.10
2022-09-17T03:33:26.072Z,6.50
2022-09-17T03:35:53.735Z,9.70
2022-09-17T03:38:21.752Z,9.80
2022-09-17T03:41:07.486Z,8.30
2022-09-17T03:43:35.618Z,11.50
2022-09-17T03:46:03.674Z,9.40
2022-09-17T03:48:32.198Z,9.20
2022-09-17T03:51:00.031Z,8.60
2022-09-17T03:53:27.686Z,7.70
2022-09-17T03:56:05.441Z,11.80
2022-09-17T03:58:33.683Z,7.70
2022-09-17T04:01:05.602Z,8.30
2022-09-17T04:03:34.415Z,10.70
2022-09-17T04:06:02.061Z,8.60
2022-09-17T04:08:29.669Z,7.90
2022-09-17T04:10:57.325Z,7.70
2022-09-17T04:13:24.971Z,7.50
2022-09-17T04:15:52.615Z,8.80
2022-09-17T04:18:20.311Z,7.70
2022-09-17T04:20:47.901Z,8.00
2022-09-17T04:23:16.062Z,8.70
2022-09-17T04:25:43.644Z,10.40
2022-09-17T04:28:13.800Z,7.90
2022-09-17T04:30:43.971Z,13.00
2022-09-17T04:33:11.727Z,9.50
2022-09-17T04:35:39.982Z,31.20
2022-09-17T04:38:07.645Z,14.20
2022-09-17T04:40:35.760Z,19.70
2022-09-17T04:43:04.128Z,24.30
2022-09-17T04:45:33.719Z,12.20
2022-09-17T04:48:01.927Z,19.60
2022-09-17T04:50:29.906Z,13.00
2022-09-17T04:52:58.203Z,14.40
2022-09-17T04:55:26.384Z,8.40
2022-09-17T04:57:54.103Z,10.40
2022-09-17T05:00:23.019Z,10.40
2022-09-17T05:02:54.522Z,9.60
2022-09-17T05:05:23.152Z,10.80
2022-09-17T05:07:50.789Z,6.50
2022-09-17T05:10:21.525Z,13.90
2022-09-17T05:12:50.891Z,44.10
2022-09-17T05:15:19.753Z,25.50
2022-09-17T05:17:47.472Z,23.50
2022-09-17T05:20:15.965Z,12.20
2022-09-17T05:22:51.543Z,8.40
2022-09-17T05:25:25.505Z,14.50
2022-09-17T05:27:58.693Z,13.60
2022-09-17T05:30:26.425Z,13.70
2022-09-17T05:33:04.465Z,9.50
2022-09-17T05:35:33.443Z,10.80
2022-09-17T05:38:03.997Z,12.00
2022-09-17T05:40:35.748Z,8.60
2022-09-17T05:43:06.887Z,7.90
2022-09-17T05:45:35.467Z,10.00
2022-09-17T05:48:06.621Z,8.40
2022-09-17T05:50:34.293Z,24.90
2022-09-17T05:53:07.580Z,12.90
2022-09-17T05:55:35.410Z,16.40
2022-09-17T05:58:29.598Z,34.60
2022-09-17T06:01:01.246Z,13.80
2022-09-17T06:03:28.960Z,17.30
2022-09-17T06:05:58.874Z,143.30
2022-09-17T06:08:29.102Z,45.10
2022-09-17T06:11:01.574Z,13.50
2022-09-17T06:13:41.266Z,13.20
2022-09-17T06:16:08.955Z,10.90
2022-09-17T06:18:36.558Z,20.20
2022-09-17T06:21:05.621Z,18.90
2022-09-17T06:23:38.708Z,17.50
2022-09-17T06:26:06.778Z,18.90
2022-09-17T06:28:40.613Z,16.90
2022-09-17T06:31:11.972Z,19.20
2022-09-17T06:33:39.825Z,10.70
2022-09-17T06:36:14.095Z,11.60
2022-09-17T06:38:42.887Z,11.60
2022-09-17T06:41:11.067Z,9.10
2022-09-17T06:43:38.686Z,10.60
2022-09-17T06:46:09.587Z,10.50
2022-09-17T06:48:48.512Z,12.00
2022-09-17T06:51:16.561Z,9.90
2022-09-17T06:53:44.250Z,15.40
2022-09-17T06:56:13.234Z,14.20
2022-09-17T06:58:42.069Z,13.70
2022-09-17T07:01:13.779Z,11.20
2022-09-17T07:03:47.313Z,16.60
2022-09-17T07:06:15.146Z,26.50
2022-09-17T07:08:42.778Z,13.30
2022-09-17T07:11:10.465Z,12.20
2022-09-17T07:13:38.227Z,11.10
2022-09-17T07:16:06.842Z,11.50
2022-09-17T07:18:34.891Z,18.60
2022-09-17T07:21:06.006Z,11.10
2022-09-17T07:23:35.827Z,17.20
2022-09-17T07:26:12.322Z,19.20
2022-09-17T07:28:40.653Z,12.20
2022-09-17T07:31:13.664Z,10.40
2022-09-17T07:33:43.344Z,8.60
2022-09-17T07:36:12.975Z,7.10
2022-09-17T07:38:40.731Z,7.80
2022-09-17T07:41:14.677Z,8.80
2022-09-17T07:43:43.984Z,12.40
2022-09-17T07:46:18.017Z,12.70
2022-09-17T07:48:48.564Z,6.70
2022-09-17T07:51:24.588Z,23.30
2022-09-17T07:53:53.755Z,8.60
2022-09-17T07:56:22.366Z,6.90
2022-09-17T07:58:50.539Z,11.30
2022-09-17T08:01:18.422Z,15.60
2022-09-17T08:03:54.057Z,10.90
2022-09-17T08:06:28.298Z,7.80
2022-09-17T08:08:58.034Z,7.70
2022-09-17T08:14:16.755Z,9.30
2022-09-17T08:16:49.358Z,11.70
2022-09-17T08:19:19.073Z,14.30
2022-09-17T08:21:47.185Z,6.80
2022-09-17T08:24:14.823Z,15.90
2022-09-17T08:26:42.379Z,15.30
2022-09-17T08:29:11.903Z,10.10
2022-09-17T08:31:39.640Z,10.00
2022-09-17T08:34:12.066Z,10.20
2022-09-17T08:36:39.684Z,9.70
2022-09-17T08:39:08.104Z,13.30
2022-09-17T08:42:08.070Z,13.00
2022-09-17T08:44:43.320Z,10.80
2022-09-17T08:47:32.445Z,9.70
2022-09-17T08:50:05.375Z,10.20
2022-09-17T08:52:55.096Z,43.30
2022-09-17T08:55:53.601Z,10.20
2022-09-17T08:58:39.961Z,8.30
2022-09-17T09:01:23.538Z,6.60
2022-09-17T09:04:13.776Z,7.60
2022-09-17T09:06:59.708Z,16.40
2022-09-17T09:09:39.000Z,10.60
2022-09-17T09:12:17.413Z,9.90
2022-09-17T09:15:15.581Z,10.10
2022-09-17T09:17:46.955Z,8.40
2022-09-17T09:20:25.081Z,7.40
2022-09-17T09:22:52.961Z,7.40
2022-09-17T09:25:23.394Z,6.60
2022-09-17T09:28:04.034Z,8.70
2022-09-17T09:30:54.093Z,9.90
2022-09-17T09:33:33.675Z,6.80
2022-09-17T09:36:01.647Z,7.00
2022-09-17T09:38:34.113Z,12.70
2022-09-17T09:41:16.174Z,5.80
2022-09-17T09:44:03.127Z,7.30
2022-09-17T09:46:49.626Z,8.30
2022-09-17T09:49:35.844Z,8.30
2022-09-17T09:52:06.201Z,7.90
2022-09-17T09:54:49.791Z,8.50
2022-09-17T09:57:25.258Z,8.90
2022-09-17T10:00:18.089Z,12.10
2022-09-17T10:02:47.216Z,17.20
2022-09-17T10:05:15.755Z,8.10
2022-09-17T10:07:45.187Z,7.00
2022-09-17T10:10:13.294Z,8.30
2022-09-17T10:12:45.165Z,10.80
2022-09-17T10:15:43.888Z,7.70
2022-09-17T10:18:20.222Z,7.50
2022-09-17T10:20:52.857Z,8.10
2022-09-17T10:23:26.682Z,7.20
2022-09-17T10:25:55.735Z,6.70
2022-09-17T10:28:56.417Z,8.10
2022-09-17T10:31:24.958Z,6.50
2022-09-17T10:33:55.185Z,6.90
2022-09-17T10:36:40.433Z,5.70
2022-09-17T10:39:27.058Z,8.60
2022-09-17T10:42:11.644Z,7.90
2022-09-17T10:44:53.713Z,7.40
2022-09-17T10:47:23.335Z,11.90
2022-09-17T10:50:03.973Z,18.10
2022-09-17T10:52:44.419Z,16.10
2022-09-17T10:55:33.432Z,9.00
2022-09-17T10:58:10.064Z,8.20
2022-09-17T11:00:56.831Z,7.80
2022-09-17T11:03:56.440Z,7.20
2022-09-17T11:06:38.470Z,6.10
2022-09-17T11:09:31.162Z,7.10
2022-09-17T11:12:13.802Z,8.40
2022-09-17T11:15:11.703Z,14.80
2022-09-17T11:17:58.912Z,13.70
2022-09-17T11:20:45.027Z,10.30
2022-09-17T11:23:40.896Z,16.10
2022-09-17T11:26:47.338Z,8.90
2022-09-17T11:29:32.942Z,8.30
2022-09-17T11:32:19.393Z,8.90
2022-09-17T11:35:21.092Z,9.50
2022-09-17T11:38:29.584Z,11.20
2022-09-17T11:41:18.480Z,9.20
2022-09-17T11:43:54.422Z,12.90
2022-09-17T11:46:30.661Z,10.90
2022-09-17T11:49:24.548Z,11.00
2022-09-17T11:52:16.870Z,9.80
2022-09-17T11:57:41.548Z,9.60
2022-09-17T12:00:21.492Z,10.70
2022-09-17T12:03:28.189Z,22.00
2022-09-17T12:06:20.975Z,12.30
2022-09-17T12:08:58.930Z,15.20
2022-09-17T12:11:35.032Z,11.90
2022-09-17T12:14:16.091Z,9.60
2022-09-17T12:16:48.638Z,7.70
2022-09-17T12:19:31.612Z,10.70
2022-09-17T12:22:22.169Z,16.30
2022-09-17T12:24:52.753Z,13.00
2022-09-17T12:27:42.474Z,16.60
2022-09-17T12:33:41.407Z,8.30
2022-09-17T12:36:19.583Z,7.40
2022-09-17T12:39:00.666Z,24.80
2022-09-17T12:45:02.529Z,11.70
2022-09-17T12:48:02.245Z,9.30
2022-09-17T12:51:03.750Z,7.50
2022-09-17T12:53:44.826Z,12.40
2022-09-17T12:56:34.463Z,13.10
2022-09-17T13:01:58.157Z,13.70
2022-09-17T13:05:01.300Z,8.50
2022-09-17T13:07:51.277Z,7.30
2022-09-17T13:10:50.668Z,11.00
2022-09-17T13:13:37.351Z,8.10
2022-09-17T13:16:13.328Z,11.70
2022-09-17T13:19:17.115Z,53.30
2022-09-17T13:22:07.041Z,35.80
2022-09-17T13:24:35.097Z,12.20
2022-09-17T13:27:21.130Z,20.10
2022-09-17T13:29:54.861Z,12.90
2022-09-17T13:32:41.481Z,13.10
2022-09-17T13:35:09.485Z,17.60
2022-09-17T13:37:41.938Z,14.80
2022-09-17T13:40:28.955Z,8.70
2022-09-17T13:43:04.166Z,16.70
2022-09-17T13:45:36.214Z,10.90
2022-09-17T13:48:09.199Z,7.80
2022-09-17T13:50:44.141Z,8.60
2022-09-17T13:53:14.501Z,11.40
2022-09-17T13:55:44.046Z,13.70
2022-09-17T13:58:11.959Z,9.00
2022-09-17T14:00:57.989Z,9.90
2022-09-17T14:03:28.832Z,12.60
2022-09-17T14:06:15.637Z,35.20
2022-09-17T14:09:02.195Z,14.70
2022-09-17T14:11:29.798Z,10.80
2022-09-17T14:14:11.266Z,17.70
2022-09-17T14:16:58.991Z,13.00
2022-09-17T14:19:32.476Z,11.60
2022-09-17T14:22:07.876Z,26.00
2022-09-17T14:24:40.212Z,13.30
2022-09-17T14:27:16.504Z,10.90
2022-09-17T14:29:51.301Z,13.20
2022-09-17T14:32:49.739Z,14.70
2022-09-17T14:35:26.867Z,13.10
2022-09-17T14:38:15.985Z,9.20
2022-09-17T14:41:19.492Z,17.80
2022-09-17T14:43:53.804Z,20.20
2022-09-17T14:46:40.205Z,12.90
2022-09-17T14:49:20.698Z,9.10
2022-09-17T14:51:48.973Z,35.00
2022-09-17T14:54:26.978Z,19.10
2022-09-17T14:57:03.628Z,15.30
2022-09-17T14:59:50.338Z,11.00
2022-09-17T15:02:43.514Z,51.20
2022-09-17T15:05:19.238Z,19.50
2022-09-17T15:07:47.205Z,25.50
2022-09-17T15:10:22.441Z,9.80
2022-09-17T15:12:51.305Z,7.80
2022-09-17T15:15:26.546Z,39.90
2022-09-17T15:17:54.614Z,31.50
2022-09-17T15:20:29.223Z,12.10
2022-09-17T15:23:02.263Z,16.60
2022-09-17T15:25:31.347Z,28.30
2022-09-17T15:28:20.614Z,26.40
2022-09-17T15:30:51.909Z,15.10
2022-09-17T15:33:20.251Z,18.30
2022-09-17T15:36:21.216Z,11.50
2022-09-17T15:38:50.187Z,11.70
2022-09-17T15:41:33.837Z,23.70
2022-09-17T15:44:36.570Z,9.40
2022-09-17T15:47:37.050Z,15.00
2022-09-17T15:50:17.098Z,21.10
2022-09-17T15:52:45.468Z,9.40
2022-09-17T15:55:46.175Z,11.70
2022-09-17T15:58:34.863Z,16.40
2022-09-17T16:01:20.964Z,22.60
2022-09-17T16:04:21.559Z,24.00
2022-09-17T16:07:27.895Z,20.50
2022-09-17T16:09:58.162Z,23.50
2022-09-17T16:12:29.108Z,14.90
2022-09-17T16:14:58.861Z,11.60
2022-09-17T16:17:52.839Z,11.10
2022-09-17T16:20:23.613Z,14.30
2022-09-17T16:22:52.881Z,12.90
2022-09-17T16:25:28.775Z,14.90
2022-09-17T16:28:03.564Z,20.20
2022-09-17T16:30:31.370Z,19.30
2022-09-17T16:33:00.556Z,14.20
2022-09-17T16:35:28.172Z,16.20
2022-09-17T16:37:57.334Z,12.80
2022-09-17T16:40:31.047Z,10.30
2022-09-17T16:43:03.342Z,24.20
2022-09-17T16:45:32.068Z,24.70
2022-09-17T16:47:59.805Z,27.30
2022-09-17T16:50:28.106Z,15.90
2022-09-17T16:52:55.764Z,10.00
2022-09-17T16:55:23.404Z,8.20
2022-09-17T16:57:51.846Z,13.40
2022-09-17T17:00:21.581Z,21.20
2022-09-17T17:02:57.171Z,42.70
2022-09-17T17:05:26.684Z,28.70
2022-09-17T17:07:55.385Z,39.40
2022-09-17T17:10:26.632Z,24.20
2022-09-17T17:12:54.454Z,16.40
2022-09-17T17:15:23.619Z,15.60
2022-09-17T17:17:52.159Z,16.00
2022-09-17T17:20:19.876Z,17.00
2022-09-17T17:22:47.519Z,15.40
2022-09-17T17:25:15.239Z,11.50
2022-09-17T17:27:44.606Z,9.50
2022-09-17T17:30:17.745Z,17.70
2022-09-17T17:32:51.684Z,10.10
2022-09-17T17:35:20.072Z,9.90
2022-09-17T17:37:48.751Z,14.40
2022-09-17T17:40:16.515Z,17.70
2022-09-17T17:42:47.254Z,14.00
2022-09-17T17:45:16.051Z,41.00
2022-09-17T17:47:43.719Z,29.70
2022-09-17T17:50:11.355Z,42.80
2022-09-17T17:52:40.644Z,18.20
2022-09-17T17:55:08.460Z,50.40
2022-09-17T17:57:36.053Z,58.50
2022-09-17T18:00:04.538Z,41.10
2022-09-17T18:02:32.314Z,42.20
2022-09-17T18:05:04.180Z,23.00
2022-09-17T18:07:32.269Z,19.00
2022-09-17T18:09:59.827Z,19.00
2022-09-17T18:12:27.478Z,19.30
2022-09-17T18:14:55.080Z,19.30
2022-09-17T18:17:22.665Z,22.60
2022-09-17T18:19:51.683Z,30.70
2022-09-17T18:22:19.298Z,53.70
2022-09-17T18:24:47.324Z,48.60
2022-09-17T18:27:16.588Z,31.50
2022-09-17T18:29:44.151Z,46.20
2022-09-17T18:32:11.788Z,33.40
2022-09-17T18:34:41.737Z,38.10
2022-09-17T18:37:10.146Z,43.00
2022-09-17T18:42:25.531Z,32.10
2022-09-17T18:44:53.078Z,30.20
2022-09-17T18:47:20.659Z,37.40
2022-09-17T18:49:48.198Z,24.40
2022-09-17T18:52:15.833Z,26.90
2022-09-17T18:54:45.946Z,34.10
2022-09-17T18:57:13.850Z,32.20
2022-09-17T18:59:41.453Z,31.20
2022-09-17T19:02:12.740Z,42.50
2022-09-17T19:04:40.462Z,30.70
2022-09-17T19:07:08.082Z,19.30
2022-09-17T19:09:35.800Z,25.80
2022-09-17T19:12:03.469Z,28.70
2022-09-17T19:14:31.749Z,33.50
2022-09-17T19:16:59.459Z,24.20
2022-09-17T19:19:27.044Z,22.40
2022-09-17T19:21:54.627Z,48.20
2022-09-17T19:24:22.196Z,33.90
2022-09-17T19:26:51.080Z,29.60
2022-09-17T19:29:18.801Z,24.10
2022-09-17T19:31:46.858Z,28.60
2022-09-17T19:34:14.473Z,80.60
2022-09-17T19:36:42.220Z,81.10
2022-09-17T19:39:09.771Z,52.80
2022-09-17T19:41:37.608Z,69.70
2022-09-17T19:44:05.212Z,76.50
2022-09-17T19:46:32.986Z,44.10
2022-09-17T19:49:01.301Z,56.80
2022-09-17T19:51:32.101Z,52.80
2022-09-17T19:53:59.720Z,58.20
2022-09-17T19:56:27.925Z,39.00
2022-09-17T19:58:57.170Z,49.70
2022-09-17T20:01:25.632Z,32.70
2022-09-17T20:03:53.323Z,28.40
2022-09-17T20:06:22.622Z,26.70
2022-09-17T20:08:53.049Z,29.20
2022-09-17T20:11:24.039Z,37.80
2022-09-17T20:14:03.039Z,60.10
2022-09-17T20:16:30.816Z,65.30
2022-09-17T20:18:59.224Z,152.60
2022-09-17T20:21:29.505Z,70.90
2022-09-17T20:23:58.607Z,40.10
2022-09-17T20:26:27.399Z,27.80
2022-09-17T20:28:55.572Z,20.30
2022-09-17T20:31:31.938Z,16.00
2022-09-17T20:34:03.409Z,26.20
2022-09-17T20:36:33.950Z,26.80
2022-09-17T20:39:12.345Z,27.50
2022-09-17T20:41:50.784Z,33.90
2022-09-17T20:44:18.416Z,33.50
2022-09-17T20:46:46.349Z,23.40
2022-09-17T20:49:14.326Z,19.70
2022-09-17T20:51:41.976Z,18.20
2022-09-17T20:54:10.790Z,16.00
2022-09-17T20:56:39.292Z,15.70
2022-09-17T20:59:17.958Z,14.00
2022-09-17T21:01:49.465Z,17.20
2022-09-17T21:04:19.741Z,18.70
2022-09-17T21:06:52.999Z,14.70
2022-09-17T21:09:20.625Z,16.50
2022-09-17T21:11:49.324Z,15.20
2022-09-17T21:14:18.111Z,17.60
2022-09-17T21:16:46.689Z,15.10
2022-09-17T21:19:16.357Z,13.30
2022-09-17T21:21:45.026Z,14.20
2022-09-17T21:24:12.761Z,15.40
2022-09-17T21:26:40.460Z,13.10
2022-09-17T21:29:08.648Z,13.50
2022-09-17T21:31:37.874Z,14.00
2022-09-17T21:34:09.573Z,24.20
2022-09-17T21:36:39.264Z,20.30
2022-09-17T21:39:12.992Z,14.50
2022-09-17T21:41:42.985Z,15.20
2022-09-17T21:44:11.995Z,14.60
2022-09-17T21:46:42.303Z,13.40
2022-09-17T21:49:11.302Z,17.90
2022-09-17T21:51:41.883Z,15.80
2022-09-17T21:54:12.764Z,16.10
2022-09-17T21:56:40.344Z,13.90
2022-09-17T21:59:11.795Z,16.90
2022-09-17T22:01:44.019Z,11.90
2022-09-17T22:04:20.763Z,10.60
2022-09-17T22:06:50.080Z,12.00
2022-09-17T22:09:23.675Z,11.10
2022-09-17T22:11:53.250Z,10.20
2022-09-17T22:14:23.614Z,11.00
2022-09-17T22:16:54.683Z,10.30
2022-09-17T22:19:24.208Z,12.20
2022-09-17T22:21:54.438Z,12.60
2022-09-17T22:24:23.339Z,10.00
2022-09-17T22:26:57.442Z,11.30
2022-09-17T22:29:30.415Z,11.60
2022-09-17T22:31:57.977Z,11.10
2022-09-17T22:34:26.464Z,13.60
2022-09-17T22:36:54.078Z,17.80
2022-09-17T22:39:21.914Z,24.30
2022-09-17T22:41:50.560Z,21.10
2022-09-17T22:44:19.443Z,18.10
2022-09-17T22:46:49.679Z,16.00
2022-09-17T22:49:18.204Z,12.90
2022-09-17T22:51:47.158Z,15.60
2022-09-17T22:54:17.172Z,13.40
2022-09-17T22:56:46.482Z,17.10
2022-09-17T22:59:14.120Z,23.00
2022-09-17T23:01:42.281Z,24.90
2022-09-17T23:04:10.377Z,15.20
2022-09-17T23:06:39.884Z,12.60
2022-09-17T23:09:07.964Z,12.60
2022-09-17T23:11:39.069Z,13.60
2022-09-17T23:14:11.442Z,13.10
2022-09-17T23:16:45.881Z,16.90
2022-09-17T23:19:18.196Z,22.30
2022-09-17T23:21:45.987Z,19.80
2022-09-17T23:24:20.462Z,16.90
2022-09-17T23:26:50.182Z,12.70
2022-09-17T23:29:18.612Z,12.90
2022-09-17T23:31:46.291Z,14.40
2022-09-17T23:34:13.968Z,14.80
2022-09-17T23:36:41.787Z,17.30
2022-09-17T23:39:11.833Z,18.90
2022-09-17T23:41:43.871Z,18.90
2022-09-17T23:44:15.816Z,12.10
2022-09-17T23:46:46.229Z,11.90
2022-09-17T23:49:15.108Z,15.00
2022-09-17T23:51:42.841Z,13.70
2022-09-17T23:54:10.460Z,12.80
2022-09-17T23:56:38.086Z,14.70
2022-09-17T23:59:07.511Z,15.30
